createdAt,value
2023-02-08T00:01:21.560Z,0.85
2023-02-08T00:03:48.667Z,0.85
2023-02-08T00:06:16.023Z,0.77
2023-02-08T00:08:42.801Z,0.73
2023-02-08T00:11:10.648Z,0.74
2023-02-08T00:13:39.773Z,0.72
2023-02-08T00:16:07.893Z,0.89
2023-02-08T00:18:34.398Z,0.91
2023-02-08T00:21:00.930Z,0.74
2023-02-08T00:23:27.461Z,0.62
2023-02-08T00:25:53.978Z,0.55
2023-02-08T00:28:20.699Z,0.57
2023-02-08T00:30:48.534Z,0.55
2023-02-08T00:33:15.347Z,0.72
2023-02-08T00:35:42.492Z,0.49
2023-02-08T00:38:08.984Z,0.65
2023-02-08T00:40:35.896Z,0.66
2023-02-08T00:43:02.833Z,0.65
2023-02-08T00:45:29.472Z,0.39
2023-02-08T00:47:56.851Z,0.54
2023-02-08T00:50:23.430Z,0.56
2023-02-08T00:52:49.999Z,0.31
2023-02-08T00:55:16.863Z,0.30
2023-02-08T00:57:43.433Z,0.24
2023-02-08T01:00:11.154Z,0.41
2023-02-08T01:02:39.025Z,0.40
2023-02-08T01:05:06.270Z,0.38
2023-02-08T01:07:32.762Z,0.13
2023-02-08T01:10:01.774Z,0.30
2023-02-08T01:12:28.397Z,0.04
2023-02-08T01:14:54.906Z,-0.03
2023-02-08T01:17:21.445Z,0.20
2023-02-08T01:19:47.990Z,0.22
2023-02-08T01:22:14.538Z,0.02
2023-02-08T01:24:41.092Z,-0.06
2023-02-08T01:27:08.787Z,-0.09
2023-02-08T01:29:35.354Z,-0.10
2023-02-08T01:32:01.921Z,-0.16
2023-02-08T01:34:29.554Z,-0.21
2023-02-08T01:36:56.085Z,-0.02
2023-02-08T01:39:22.944Z,-0.27
2023-02-08T01:41:51.439Z,-0.35
2023-02-08T01:44:17.900Z,-0.27
2023-02-08T01:46:47.204Z,-0.11
2023-02-08T01:49:19.735Z,-0.08
2023-02-08T01:52:01.109Z,-0.08
2023-02-08T01:54:31.358Z,-0.08
2023-02-08T01:56:58.108Z,-0.33
2023-02-08T01:59:33.041Z,-0.18
2023-02-08T02:02:01.005Z,-0.47
2023-02-08T02:04:28.010Z,-0.49
2023-02-08T02:06:58.001Z,-0.54
2023-02-08T02:09:36.003Z,-0.34
2023-02-08T02:12:02.577Z,-0.32
2023-02-08T02:14:29.396Z,-0.47
2023-02-08T02:16:55.933Z,-0.53
2023-02-08T02:19:31.458Z,-0.36
2023-02-08T02:22:10.739Z,-0.34
2023-02-08T02:25:18.047Z,-0.49
2023-02-08T02:28:13.821Z,-0.38
2023-02-08T02:31:23.921Z,-0.49
2023-02-08T02:33:58.444Z,-0.38
2023-02-08T02:36:46.832Z,-0.51
2023-02-08T02:39:35.000Z,-0.55
2023-02-08T02:42:59.025Z,-0.54
2023-02-08T02:45:49.903Z,-0.42
2023-02-08T02:48:25.788Z,-0.40
2023-02-08T02:50:59.044Z,-0.40
2023-02-08T02:53:42.008Z,-0.52
2023-02-08T02:56:39.464Z,-0.39
2023-02-08T02:59:08.631Z,-0.38
2023-02-08T03:01:35.479Z,-0.56
2023-02-08T03:04:30.721Z,-0.55
2023-02-08T03:07:19.486Z,-0.59
2023-02-08T03:09:58.202Z,-0.56
2023-02-08T03:12:31.327Z,-0.42
2023-02-08T03:15:21.925Z,-0.49
2023-02-08T03:17:51.384Z,-0.39
2023-02-08T03:20:41.941Z,-0.50
2023-02-08T03:23:19.414Z,-0.39
2023-02-08T03:26:20.108Z,-0.56
2023-02-08T03:28:49.277Z,-0.62
2023-02-08T03:31:25.351Z,-0.44
2023-02-08T03:34:02.438Z,-0.61
2023-02-08T03:36:34.110Z,-0.63
2023-02-08T03:39:05.781Z,-0.63
2023-02-08T03:41:37.923Z,-0.64
2023-02-08T03:44:21.177Z,-0.51
2023-02-08T03:47:09.584Z,-0.54
2023-02-08T03:49:37.773Z,-0.67
2023-02-08T03:52:07.962Z,-0.71
2023-02-08T03:54:39.875Z,-0.55
2023-02-08T03:57:09.184Z,-0.54
2023-02-08T03:59:39.812Z,-0.75
2023-02-08T04:02:11.584Z,-0.81
2023-02-08T04:04:42.240Z,-0.63
2023-02-08T04:07:09.194Z,-0.62
2023-02-08T04:09:37.841Z,-0.63
2023-02-08T04:12:06.054Z,-0.63
2023-02-08T04:14:32.597Z,-0.84
2023-02-08T04:16:59.082Z,-0.70
2023-02-08T04:19:25.706Z,-0.99
2023-02-08T04:21:52.266Z,-0.77
2023-02-08T04:24:18.795Z,-0.77
2023-02-08T04:26:45.267Z,-0.77
2023-02-08T04:29:11.809Z,-0.95
2023-02-08T04:31:38.512Z,-0.98
2023-02-08T04:34:05.101Z,-0.84
2023-02-08T04:36:31.673Z,-0.82
2023-02-08T04:38:58.229Z,-1.09
2023-02-08T04:41:24.984Z,-0.92
2023-02-08T04:43:51.541Z,-0.86
2023-02-08T04:46:18.075Z,-0.87
2023-02-08T04:48:44.634Z,-0.87
2023-02-08T04:51:11.195Z,-0.86
2023-02-08T04:53:37.684Z,-1.08
2023-02-08T04:56:04.394Z,-0.92
2023-02-08T04:58:30.939Z,-1.12
2023-02-08T05:00:57.545Z,-0.97
2023-02-08T05:03:24.148Z,-1.17
2023-02-08T05:06:00.194Z,-1.00
2023-02-08T05:08:27.082Z,-1.10
2023-02-08T05:10:53.681Z,-1.16
2023-02-08T05:13:20.161Z,-1.01
2023-02-08T05:15:46.911Z,-0.98
2023-02-08T05:18:13.587Z,-0.97
2023-02-08T05:20:40.400Z,-0.96
2023-02-08T05:23:07.173Z,-1.13
2023-02-08T05:25:33.678Z,-0.98
2023-02-08T05:28:00.475Z,-1.15
2023-02-08T05:30:27.123Z,-0.99
2023-02-08T05:32:53.731Z,-0.97
2023-02-08T05:35:20.229Z,-0.96
2023-02-08T05:37:46.790Z,-0.94
2023-02-08T05:40:13.363Z,-1.14
2023-02-08T05:42:42.107Z,-1.17
2023-02-08T05:45:08.925Z,-1.14
2023-02-08T05:47:36.926Z,-1.01
2023-02-08T05:50:03.681Z,-1.17
2023-02-08T05:52:30.365Z,-1.08
2023-02-08T05:54:56.880Z,-1.21
2023-02-08T05:57:23.361Z,-1.04
2023-02-08T05:59:49.933Z,-1.02
2023-02-08T06:02:16.485Z,-1.20
2023-02-08T06:04:43.083Z,-1.07
2023-02-08T06:07:09.567Z,-1.01
2023-02-08T06:09:36.158Z,-1.22
2023-02-08T06:12:02.787Z,-1.31
2023-02-08T06:14:29.387Z,-1.10
2023-02-08T06:16:55.940Z,-1.26
2023-02-08T06:19:22.482Z,-1.09
2023-02-08T06:21:49.023Z,-1.08
2023-02-08T06:24:16.624Z,-1.06
2023-02-08T06:26:45.165Z,-1.07
2023-02-08T06:29:11.749Z,-1.06
2023-02-08T06:31:38.376Z,-1.24
2023-02-08T06:34:04.981Z,-1.29
2023-02-08T06:36:31.802Z,-1.12
2023-02-08T06:38:58.300Z,-1.30
2023-02-08T06:41:24.906Z,-1.19
2023-02-08T06:43:51.481Z,-1.31
2023-02-08T06:46:18.035Z,-1.29
2023-02-08T06:48:44.549Z,-1.14
2023-02-08T06:51:11.091Z,-1.29
2023-02-08T06:53:37.622Z,-1.16
2023-02-08T06:56:04.311Z,-1.14
2023-02-08T06:58:30.839Z,-1.34
2023-02-08T07:00:57.427Z,-1.18
2023-02-08T07:03:24.064Z,-1.39
2023-02-08T07:06:04.061Z,-1.21
2023-02-08T07:08:33.490Z,-1.17
2023-02-08T07:11:00.096Z,-1.15
2023-02-08T07:13:26.641Z,-1.33
2023-02-08T07:15:53.183Z,-1.40
2023-02-08T07:18:19.714Z,-1.18
2023-02-08T07:20:46.306Z,-1.17
2023-02-08T07:23:12.895Z,-1.16
2023-02-08T07:25:39.416Z,-1.16
2023-02-08T07:28:06.029Z,-1.36
2023-02-08T07:30:32.674Z,-1.39
2023-02-08T07:32:59.245Z,-1.21
2023-02-08T07:35:25.857Z,-1.19
2023-02-08T07:37:52.498Z,-1.20
2023-02-08T07:40:19.112Z,-1.39
2023-02-08T07:42:45.800Z,-1.40
2023-02-08T07:45:23.432Z,-1.23
2023-02-08T07:47:50.009Z,-1.23
2023-02-08T07:50:16.866Z,-1.41
2023-02-08T07:52:45.941Z,-1.41
2023-02-08T07:55:16.992Z,-1.24
2023-02-08T07:57:44.595Z,-1.20
2023-02-08T08:00:11.743Z,-1.22
2023-02-08T08:02:42.140Z,-1.35
2023-02-08T08:05:09.198Z,-1.22
2023-02-08T08:07:36.480Z,-1.15
2023-02-08T08:10:04.045Z,-1.36
2023-02-08T08:12:30.583Z,-1.34
2023-02-08T08:14:57.126Z,-1.17
2023-02-08T08:17:23.633Z,-1.24
2023-02-08T08:19:50.186Z,-1.20
2023-02-08T08:22:16.697Z,-1.35
2023-02-08T08:24:43.195Z,-1.09
2023-02-08T08:27:09.728Z,-1.05
2023-02-08T08:29:37.377Z,-1.14
2023-02-08T08:32:04.329Z,-1.00
2023-02-08T08:34:31.772Z,-0.94
2023-02-08T08:37:02.966Z,-0.90
2023-02-08T08:39:29.485Z,-0.87
2023-02-08T08:42:00.680Z,-0.96
2023-02-08T08:44:27.222Z,-0.84
2023-02-08T08:46:57.783Z,-0.77
2023-02-08T08:49:25.725Z,-0.86
2023-02-08T08:51:52.323Z,-0.90
2023-02-08T08:54:19.310Z,-0.82
2023-02-08T08:56:45.986Z,-0.72
2023-02-08T08:59:12.734Z,-0.77
2023-02-08T09:01:41.214Z,-0.68
2023-02-08T09:04:09.044Z,-0.60
2023-02-08T09:06:35.699Z,-0.55
2023-02-08T09:09:02.818Z,-0.57
2023-02-08T09:11:29.412Z,-0.51
2023-02-08T09:13:56.289Z,-0.46
2023-02-08T09:16:24.391Z,-0.42
2023-02-08T09:18:51.375Z,-0.41
2023-02-08T09:21:20.354Z,-0.47
2023-02-08T09:23:50.184Z,-0.45
2023-02-08T09:26:19.196Z,-0.43
2023-02-08T09:28:45.864Z,-0.40
2023-02-08T09:31:18.636Z,-0.38
2023-02-08T09:33:45.301Z,-0.37
2023-02-08T09:36:11.944Z,-0.25
2023-02-08T09:38:38.897Z,-0.30
2023-02-08T09:41:44.877Z,-0.20
2023-02-08T09:44:40.321Z,-0.22
2023-02-08T09:47:28.321Z,-0.20
2023-02-08T09:50:01.840Z,-0.14
2023-02-08T09:52:40.057Z,-0.05
2023-02-08T09:55:26.208Z,-0.03
2023-02-08T09:57:55.027Z,0.02
2023-02-08T10:00:46.902Z,0.12
2023-02-08T10:03:21.949Z,0.19
2023-02-08T10:05:48.520Z,0.24
2023-02-08T10:08:15.083Z,0.24
2023-02-08T10:10:50.455Z,0.27
2023-02-08T10:13:41.805Z,0.27
2023-02-08T10:16:36.237Z,0.41
2023-02-08T10:19:39.518Z,0.40
2023-02-08T10:22:42.293Z,0.46
2023-02-08T10:25:24.057Z,0.56
2023-02-08T10:27:56.794Z,0.55
2023-02-08T10:30:44.363Z,0.59
2023-02-08T10:33:34.304Z,0.63
2023-02-08T10:36:00.879Z,0.73
2023-02-08T10:38:45.541Z,0.69
2023-02-08T10:41:23.138Z,0.72
2023-02-08T10:44:03.704Z,0.78
2023-02-08T10:46:32.346Z,0.78
2023-02-08T10:49:13.820Z,0.91
2023-02-08T10:51:40.478Z,0.96
2023-02-08T10:54:12.704Z,1.02
2023-02-08T10:56:42.095Z,0.94
2023-02-08T10:59:14.846Z,1.01
2023-02-08T11:01:41.947Z,1.04
2023-02-08T11:04:13.187Z,1.08
2023-02-08T11:06:42.256Z,1.23
2023-02-08T11:09:20.226Z,1.27
2023-02-08T11:11:46.765Z,1.33
2023-02-08T11:14:18.988Z,1.30
2023-02-08T11:16:54.053Z,1.33
2023-02-08T11:19:35.448Z,1.41
2023-02-08T11:22:05.814Z,1.43
2023-02-08T11:24:40.188Z,1.47
2023-02-08T11:27:34.710Z,1.65
2023-02-08T11:30:13.224Z,1.65
2023-02-08T11:32:40.991Z,1.68
2023-02-08T11:35:24.457Z,1.78
2023-02-08T11:37:57.899Z,1.72
2023-02-08T11:40:42.967Z,1.78
2023-02-08T11:43:22.016Z,1.79
2023-02-08T11:45:49.352Z,1.87
2023-02-08T11:48:26.738Z,1.91
2023-02-08T11:50:56.138Z,2.02
2023-02-08T11:53:36.388Z,2.16
2023-02-08T11:56:20.705Z,2.20
2023-02-08T11:59:12.337Z,2.32
2023-02-08T12:01:41.413Z,2.46
2023-02-08T12:04:11.391Z,2.46
2023-02-08T12:07:17.081Z,2.61
2023-02-08T12:10:09.992Z,2.69
2023-02-08T12:13:14.085Z,2.79
2023-02-08T12:16:08.432Z,2.80
2023-02-08T12:19:03.926Z,2.94
2023-02-08T12:21:45.264Z,3.04
2023-02-08T12:24:29.249Z,3.24
2023-02-08T12:27:17.111Z,3.21
2023-02-08T12:30:19.651Z,3.32
2023-02-08T12:33:17.243Z,3.43
2023-02-08T12:36:05.033Z,3.50
2023-02-08T12:38:50.408Z,3.53
2023-02-08T12:41:31.836Z,3.63
2023-02-08T12:44:23.212Z,3.67
2023-02-08T12:47:00.965Z,3.74
2023-02-08T12:49:40.817Z,3.79
2023-02-08T12:52:28.574Z,3.86
2023-02-08T12:55:12.751Z,3.97
2023-02-08T12:57:42.471Z,3.98
2023-02-08T13:00:32.682Z,4.06
2023-02-08T13:03:14.109Z,4.10
2023-02-08T13:06:01.584Z,4.13
2023-02-08T13:08:41.280Z,4.26
2023-02-08T13:11:20.304Z,4.36
2023-02-08T13:13:58.988Z,4.46
2023-02-08T13:16:31.166Z,4.46
2023-02-08T13:19:31.986Z,4.57
2023-02-08T13:21:59.749Z,4.70
2023-02-08T13:24:33.331Z,4.66
2023-02-08T13:26:59.950Z,4.74
2023-02-08T13:29:28.319Z,4.63
2023-02-08T13:32:03.753Z,4.71
2023-02-08T13:34:59.956Z,4.82
2023-02-08T13:37:31.576Z,4.79
2023-02-08T13:40:10.442Z,4.98
2023-02-08T13:42:42.525Z,4.94
2023-02-08T13:45:22.311Z,4.91
2023-02-08T13:47:56.133Z,5.15
2023-02-08T13:50:34.971Z,5.18
2023-02-08T13:53:03.319Z,5.19
2023-02-08T13:55:41.380Z,5.22
2023-02-08T13:58:13.763Z,5.23
2023-02-08T14:00:56.348Z,5.41
2023-02-08T14:03:27.331Z,5.40
2023-02-08T14:06:22.909Z,5.45
2023-02-08T14:09:21.747Z,5.47
2023-02-08T14:12:00.610Z,5.48
2023-02-08T14:14:31.077Z,5.52
2023-02-08T14:17:03.638Z,5.57
2023-02-08T14:19:38.794Z,5.62
2023-02-08T14:22:12.640Z,5.69
2023-02-08T14:24:48.143Z,5.71
2023-02-08T14:27:31.649Z,5.74
2023-02-08T14:29:59.703Z,5.85
2023-02-08T14:32:29.294Z,5.97
2023-02-08T14:35:21.071Z,6.00
2023-02-08T14:37:50.719Z,6.03
2023-02-08T14:40:21.370Z,6.05
2023-02-08T14:42:56.992Z,6.21
2023-02-08T14:45:38.217Z,6.15
2023-02-08T14:48:23.280Z,6.13
2023-02-08T14:51:10.218Z,6.16
2023-02-08T14:53:48.768Z,6.13
2023-02-08T14:56:19.379Z,6.17
2023-02-08T14:58:50.679Z,6.14
2023-02-08T15:01:25.069Z,6.17
2023-02-08T15:03:56.299Z,6.17
2023-02-08T15:06:38.082Z,6.24
2023-02-08T15:09:06.958Z,6.34
2023-02-08T15:11:35.405Z,6.29
2023-02-08T15:14:04.583Z,6.22
2023-02-08T15:16:43.466Z,6.20
2023-02-08T15:19:21.654Z,6.13
2023-02-08T15:21:48.284Z,6.08
2023-02-08T15:24:22.327Z,6.07
2023-02-08T15:26:52.507Z,6.02
2023-02-08T15:29:42.741Z,5.99
2023-02-08T15:32:16.699Z,5.96
2023-02-08T15:34:45.218Z,5.87
2023-02-08T15:37:19.296Z,5.88
2023-02-08T15:39:50.329Z,5.84
2023-02-08T15:42:22.684Z,5.80
2023-02-08T15:44:50.058Z,5.79
2023-02-08T15:47:30.714Z,5.73
2023-02-08T15:49:58.379Z,5.68
2023-02-08T15:52:28.977Z,5.67
2023-02-08T15:54:55.923Z,5.72
2023-02-08T15:57:38.639Z,5.68
2023-02-08T16:00:12.874Z,5.66
2023-02-08T16:02:39.422Z,5.66
2023-02-08T16:05:27.874Z,5.77
2023-02-08T16:07:55.054Z,5.76
2023-02-08T16:10:33.720Z,5.74
2023-02-08T16:13:07.527Z,5.69
2023-02-08T16:15:52.014Z,5.63
2023-02-08T16:18:37.946Z,5.60
2023-02-08T16:21:06.997Z,5.59
2023-02-08T16:23:38.596Z,5.53
2023-02-08T16:26:22.930Z,5.56
2023-02-08T16:29:04.265Z,5.44
2023-02-08T16:31:33.006Z,5.41
2023-02-08T16:34:13.681Z,5.36
2023-02-08T16:36:46.092Z,5.34
2023-02-08T16:39:16.044Z,5.32
2023-02-08T16:42:06.396Z,5.28
2023-02-08T16:44:58.841Z,5.26
2023-02-08T16:47:28.099Z,5.19
2023-02-08T16:49:54.671Z,5.12
2023-02-08T16:52:21.336Z,5.13
2023-02-08T16:54:47.944Z,5.08
2023-02-08T16:57:14.451Z,5.06
2023-02-08T16:59:41.225Z,5.01
2023-02-08T17:02:12.928Z,4.90
2023-02-08T17:04:39.951Z,4.88
2023-02-08T17:07:10.986Z,4.85
2023-02-08T17:09:39.113Z,4.90
2023-02-08T17:12:21.496Z,4.85
2023-02-08T17:14:48.641Z,4.83
2023-02-08T17:17:15.145Z,4.78
2023-02-08T17:19:41.749Z,4.77
2023-02-08T17:22:08.251Z,4.75
2023-02-08T17:24:34.801Z,4.70
2023-02-08T17:27:01.512Z,4.63
2023-02-08T17:29:30.339Z,4.67
2023-02-08T17:31:56.833Z,4.60
2023-02-08T17:34:23.365Z,4.61
2023-02-08T17:36:49.866Z,4.53
2023-02-08T17:39:17.681Z,4.42
2023-02-08T17:41:44.201Z,4.55
2023-02-08T17:44:12.782Z,4.45
2023-02-08T17:46:39.391Z,4.38
2023-02-08T17:49:06.061Z,4.33
2023-02-08T17:51:34.237Z,4.31
2023-02-08T17:54:06.304Z,4.25
2023-02-08T17:56:35.338Z,4.25
2023-02-08T17:59:04.098Z,4.20
2023-02-08T18:01:31.481Z,4.22
2023-02-08T18:03:59.549Z,4.22
2023-02-08T18:06:26.338Z,4.12
2023-02-08T18:08:54.825Z,4.02
2023-02-08T18:11:23.307Z,4.07
2023-02-08T18:13:51.951Z,4.02
2023-02-08T18:16:22.514Z,3.98
2023-02-08T18:18:49.098Z,3.94
2023-02-08T18:21:21.963Z,3.82
2023-02-08T18:23:51.965Z,3.80
2023-02-08T18:26:20.985Z,3.74
2023-02-08T18:28:48.073Z,3.65
2023-02-08T18:31:17.154Z,3.63
2023-02-08T18:33:43.873Z,3.63
2023-02-08T18:36:11.580Z,3.55
2023-02-08T18:38:46.595Z,3.47
2023-02-08T18:41:16.368Z,3.50
2023-02-08T18:43:43.005Z,3.45
2023-02-08T18:46:12.542Z,3.38
2023-02-08T18:48:40.172Z,3.36
2023-02-08T18:51:09.054Z,3.26
2023-02-08T18:53:38.225Z,3.26
2023-02-08T18:56:06.911Z,3.19
2023-02-08T18:58:34.009Z,3.13
2023-02-08T19:01:09.114Z,3.11
2023-02-08T19:03:35.811Z,3.05
2023-02-08T19:06:04.374Z,3.01
2023-02-08T19:08:31.429Z,2.99
2023-02-08T19:10:58.191Z,2.98
2023-02-08T19:13:24.670Z,2.91
2023-02-08T19:15:51.333Z,2.88
2023-02-08T19:18:17.893Z,2.93
2023-02-08T19:20:44.378Z,2.82
2023-02-08T19:23:10.914Z,2.78
2023-02-08T19:25:38.805Z,2.74
2023-02-08T19:28:06.649Z,2.71
2023-02-08T19:30:33.357Z,2.72
2023-02-08T19:32:59.869Z,2.67
2023-02-08T19:35:26.482Z,2.69
2023-02-08T19:37:53.056Z,2.64
2023-02-08T19:40:19.920Z,2.56
2023-02-08T19:42:46.460Z,2.55
2023-02-08T19:45:13.961Z,2.54
2023-02-08T19:47:50.981Z,2.50
2023-02-08T19:50:18.395Z,2.46
2023-02-08T19:52:45.019Z,2.39
2023-02-08T19:55:11.558Z,2.38
2023-02-08T19:57:39.867Z,2.28
2023-02-08T20:00:17.636Z,2.35
2023-02-08T20:02:49.384Z,2.33
2023-02-08T20:05:15.918Z,2.29
2023-02-08T20:07:42.396Z,2.27
2023-02-08T20:10:09.607Z,2.18
2023-02-08T20:12:36.201Z,2.21
2023-02-08T20:15:02.794Z,2.14
2023-02-08T20:17:29.327Z,2.14
2023-02-08T20:19:55.861Z,2.11
2023-02-08T20:22:22.494Z,2.06
2023-02-08T20:24:49.171Z,2.06
2023-02-08T20:27:15.816Z,2.04
2023-02-08T20:29:42.441Z,2.03
2023-02-08T20:32:09.667Z,2.04
2023-02-08T20:34:36.446Z,2.03
2023-02-08T20:37:07.822Z,1.91
2023-02-08T20:39:36.228Z,1.94
2023-02-08T20:42:03.289Z,2.18
2023-02-08T20:44:31.316Z,1.88
2023-02-08T20:46:57.810Z,1.84
2023-02-08T20:49:25.639Z,1.91
2023-02-08T20:51:55.790Z,1.88
2023-02-08T20:54:24.536Z,1.85
2023-02-08T20:56:52.804Z,1.76
2023-02-08T20:59:19.465Z,1.77
2023-02-08T21:01:46.554Z,1.73
2023-02-08T21:04:13.565Z,1.68
2023-02-08T21:06:44.064Z,1.93
2023-02-08T21:09:13.600Z,1.73
2023-02-08T21:11:40.474Z,1.70
2023-02-08T21:14:08.148Z,1.74
2023-02-08T21:16:34.712Z,1.74
2023-02-08T21:19:01.328Z,1.76
2023-02-08T21:21:28.466Z,1.78
2023-02-08T21:23:56.742Z,1.76
2023-02-08T21:26:24.379Z,1.77
2023-02-08T21:28:56.001Z,1.78
2023-02-08T21:31:24.857Z,1.79
2023-02-08T21:33:52.640Z,1.79
2023-02-08T21:36:21.637Z,1.81
2023-02-08T21:38:48.225Z,1.78
2023-02-08T21:41:23.636Z,1.82
2023-02-08T21:43:52.762Z,1.83
2023-02-08T21:46:19.356Z,1.84
2023-02-08T21:49:04.949Z,1.76
2023-02-08T21:51:51.018Z,1.80
2023-02-08T21:54:46.386Z,1.75
2023-02-08T21:57:18.846Z,1.69
2023-02-08T21:59:47.343Z,1.66
2023-02-08T22:02:17.043Z,1.66
2023-02-08T22:04:46.496Z,1.88
2023-02-08T22:07:13.121Z,1.66
2023-02-08T22:09:41.477Z,1.68
2023-02-08T22:12:12.632Z,1.64
2023-02-08T22:14:39.197Z,1.82
2023-02-08T22:17:05.768Z,1.56
2023-02-08T22:19:32.299Z,1.47
2023-02-08T22:21:58.858Z,1.44
2023-02-08T22:24:25.453Z,1.42
2023-02-08T22:26:51.949Z,1.41
2023-02-08T22:29:18.468Z,1.61
2023-02-08T22:31:45.060Z,1.64
2023-02-08T22:34:11.585Z,1.43
2023-02-08T22:36:38.068Z,1.62
2023-02-08T22:39:04.614Z,1.63
2023-02-08T22:41:31.202Z,1.34
2023-02-08T22:43:57.796Z,1.31
2023-02-08T22:46:24.499Z,1.22
2023-02-08T22:48:51.251Z,1.45
2023-02-08T22:51:18.947Z,1.18
2023-02-08T22:53:45.526Z,1.14
2023-02-08T22:56:17.019Z,1.09
2023-02-08T22:58:43.776Z,1.09
2023-02-08T23:01:15.886Z,1.01
2023-02-08T23:03:43.087Z,1.06
2023-02-08T23:06:12.350Z,1.09
2023-02-08T23:08:38.888Z,0.99
2023-02-08T23:11:06.639Z,1.20
2023-02-08T23:13:34.791Z,1.26
2023-02-08T23:16:01.559Z,0.97
2023-02-08T23:18:28.198Z,0.97
2023-02-08T23:20:55.038Z,0.91
2023-02-08T23:23:21.968Z,0.89
2023-02-08T23:25:48.681Z,0.85
2023-02-08T23:28:15.402Z,0.89
2023-02-08T23:30:43.005Z,0.84
2023-02-08T23:33:09.651Z,1.02
2023-02-08T23:35:39.716Z,1.11
2023-02-08T23:38:06.370Z,0.81
2023-02-08T23:40:32.905Z,0.80
2023-02-08T23:42:59.503Z,0.86
2023-02-08T23:45:26.182Z,1.02
2023-02-08T23:47:52.730Z,0.97
2023-02-08T23:50:19.366Z,0.87
2023-02-08T23:52:45.919Z,1.02
2023-02-08T23:55:12.507Z,0.84
2023-02-08T23:57:39.456Z,0.77
